Bloomfield Township, MI (48301)

11:39 AM EDT on July 28, 2016 (GMT -0400)
Bloomfield Village | | Change Station

Elev 797 ft 42.55 °N, 83.26 °W | Updated 9 minutes ago

Clear
Clear
81.5 °F
Feels Like 83 °F
N
4.7
Wind Variable Wind from West

Today
High -- | Low -- °F
--% Chance of Precip.
Yesterday
High -- | Low -- °F
Precip. -- in
Pressure 29.94 in
Visibility 10.0 miles
Clouds Clear
Heat Index 83 °F
Dew Point 62 °F
Humidity 52%
Rainfall 0.00 in
Snow Depth Not available.
6:21 AM 8:56 PM
Waning Crescent, 31% visible
METAR KVLL 281535Z AUTO 01006KT 10SM CLR 27/18 A2994 RMK AO2 T02720179
Pressure 29.94 in
Visibility 10.0 miles
Clouds Clear
Heat Index 83 °F
Dew Point 62 °F
Humidity 52%
Rainfall 0.00 in
Snow Depth Not available.
6:21 AM 8:56 PM
Waning Crescent, 31% visible
METAR KVLL 281535Z AUTO 01006KT 10SM CLR 27/18 A2994 RMK AO2 T02720179

10-Day Weather Forecast

Almanac

Astronomy

Jul. 28, 2016 Rise Set
Actual Time
Civil Twilight
Nautical Twilight
Astronomical Twilight
Moon
Length of Visible Light
Length of Day
Tomorrow will be .
, % of the Moon is Illuminated

Today's Extremes

State Highs State Lows

Community

WunderPhotos

Upload Photos

1,928,129 photos uploaded!

WunderBlog® & News

Nearby

Air Quality

  Air Quality AQ Index Pollutant
Not available.

Snow Depth

Station Depth Elevation

Earthquake Activity

City Distance Mag. Time & Date
Minimum magnitude displayed is 2.5.

Coastal Water Temperatures

Place Temperature

Stations

Nearby Weather Stations

Station Location Temp. Windchill Dew Point Humidity Wind Precip. Elev Updated Type
                   

Watches & Warnings

There are currently no watches in effect.